createdAt,value
2019-04-20T00:03:18.055Z,58.22
2019-04-20T00:08:27.404Z,58.32
2019-04-20T00:13:41.809Z,58.31
2019-04-20T00:18:42.956Z,58.54
2019-04-20T00:23:46.165Z,58.18
2019-04-20T00:29:07.007Z,58.28
2019-04-20T00:34:04.614Z,58.57
2019-04-20T00:39:05.768Z,59.01
2019-04-20T00:44:13.403Z,60.42
2019-04-20T00:49:32.288Z,61.16
2019-04-20T00:54:22.228Z,61.35
2019-04-20T00:59:43.027Z,60.97
2019-04-20T01:04:56.452Z,61.14
2019-04-20T01:09:58.331Z,62.09
2019-04-20T01:15:06.254Z,63.13
2019-04-20T01:20:11.885Z,63.46
2019-04-20T01:25:22.060Z,64.85
2019-04-20T01:30:30.281Z,65.84
2019-04-20T01:35:45.059Z,66.28
2019-04-20T01:40:38.066Z,66.82
2019-04-20T01:45:44.123Z,66.79
2019-04-20T01:50:59.824Z,67.45
2019-04-20T01:56:13.280Z,68.16
2019-04-20T02:01:09.730Z,68.90
2019-04-20T02:06:21.301Z,69.63
2019-04-20T02:11:29.613Z,70.30
2019-04-20T02:16:37.323Z,70.02
2019-04-20T02:21:51.791Z,70.19
2019-04-20T02:26:41.230Z,70.76
2019-04-20T02:37:53.859Z,72.05
2019-04-20T02:42:50.745Z,72.12
2019-04-20T02:47:56.713Z,71.83
2019-04-20T02:58:01.907Z,72.19
2019-04-20T03:02:55.297Z,72.82
2019-04-20T03:08:13.785Z,72.84
2019-04-20T03:13:14.143Z,72.70
2019-04-20T03:18:21.304Z,72.75
2019-04-20T03:28:48.847Z,73.03
2019-04-20T03:34:13.454Z,73.41
2019-04-20T03:38:57.351Z,73.53
2019-04-20T03:43:45.675Z,73.75
2019-04-20T03:49:04.481Z,74.16
2019-04-20T03:54:16.949Z,74.36
2019-04-20T03:59:34.884Z,74.43
2019-04-20T04:05:02.793Z,74.42
2019-04-20T04:10:02.480Z,74.24
2019-04-20T04:14:51.549Z,73.95
2019-04-20T04:20:03.425Z,75.03
2019-04-20T04:25:18.356Z,75.11
2019-04-20T04:30:21.829Z,74.66
2019-04-20T04:35:26.481Z,73.58
2019-04-20T04:40:51.408Z,72.67
2019-04-20T04:45:31.473Z,71.83
2019-04-20T04:50:44.892Z,70.91
2019-04-20T04:55:48.669Z,70.26
2019-04-20T05:00:46.786Z,70.14
2019-04-20T05:06:16.694Z,70.48
2019-04-20T05:11:02.657Z,68.49
2019-04-20T05:16:19.239Z,67.53
2019-04-20T05:21:30.045Z,66.54
2019-04-20T05:26:45.973Z,65.26
2019-04-20T05:31:33.993Z,65.47
2019-04-20T05:36:57.519Z,65.32
2019-04-20T05:41:56.626Z,64.32
2019-04-20T05:47:06.984Z,61.95
2019-04-20T05:52:26.294Z,61.35
2019-04-20T05:57:25.014Z,59.44
2019-04-20T06:02:27.279Z,58.60
2019-04-20T06:07:40.374Z,57.32
2019-04-20T06:12:40.268Z,57.10
2019-04-20T06:18:02.725Z,56.89
2019-04-20T06:23:39.842Z,56.43
2019-04-20T06:28:30.174Z,56.96
2019-04-20T06:34:19.879Z,57.90
2019-04-20T06:39:18.644Z,58.55
2019-04-20T06:44:24.832Z,59.26
2019-04-20T06:49:31.776Z,59.44
2019-04-20T06:54:38.067Z,59.40
2019-04-20T06:59:47.386Z,58.09
2019-04-20T07:09:59.827Z,54.09
2019-04-20T07:14:57.729Z,53.02
2019-04-20T07:20:09.880Z,53.27
2019-04-20T07:25:21.463Z,53.96
2019-04-20T07:30:29.661Z,54.94
2019-04-20T07:35:38.829Z,53.78
2019-04-20T07:40:39.464Z,53.96
2019-04-20T07:45:41.598Z,51.82
2019-04-20T07:50:44.873Z,51.92
2019-04-20T07:55:57.993Z,51.80
2019-04-20T08:01:14.241Z,51.55
2019-04-20T08:06:19.850Z,50.81
2019-04-20T08:11:38.008Z,50.37
2019-04-20T08:21:55.150Z,52.30
2019-04-20T08:26:45.384Z,49.12
2019-04-20T08:32:17.923Z,48.29
2019-04-20T08:37:20.813Z,47.16
2019-04-20T08:42:39.951Z,46.16
2019-04-20T08:47:48.709Z,39.11
2019-04-20T08:57:31.464Z,36.98
2019-04-20T09:02:36.917Z,35.18
2019-04-20T09:07:53.840Z,33.80
2019-04-20T09:13:04.906Z,32.83
2019-04-20T09:18:03.737Z,31.13
2019-04-20T09:23:27.090Z,33.00
2019-04-20T09:28:34.566Z,32.00
2019-04-20T09:34:07.420Z,31.50
2019-04-20T09:39:14.098Z,34.31
2019-04-20T09:44:11.184Z,33.74
2019-04-20T09:49:28.608Z,33.96
2019-04-20T09:54:41.604Z,33.29
2019-04-20T09:59:49.678Z,32.85
2019-04-20T10:04:35.593Z,34.21
2019-04-20T10:09:44.832Z,33.55
2019-04-20T10:14:47.351Z,34.38
2019-04-20T10:19:51.844Z,33.92
2019-04-20T10:24:57.181Z,33.18
2019-04-20T10:30:04.685Z,34.97
2019-04-20T10:35:09.016Z,33.22
2019-04-20T10:40:31.582Z,33.16
2019-04-20T10:45:21.326Z,33.21
2019-04-20T10:50:27.148Z,33.73
2019-04-20T10:55:31.893Z,30.85
2019-04-20T11:00:46.830Z,30.93
2019-04-20T11:05:52.853Z,31.31
2019-04-20T11:11:07.091Z,32.17
2019-04-20T11:16:06.467Z,30.81
2019-04-20T11:21:11.409Z,28.64
2019-04-20T11:26:16.248Z,29.37
2019-04-20T11:31:22.009Z,26.77
2019-04-20T11:36:27.430Z,26.20
2019-04-20T11:41:34.118Z,25.68
2019-04-20T11:46:38.758Z,24.93
2019-04-20T11:51:43.572Z,25.65
2019-04-20T11:56:49.055Z,24.47
2019-04-20T12:02:02.713Z,24.03
2019-04-20T12:07:05.081Z,24.43
2019-04-20T12:12:23.468Z,23.02
2019-04-20T12:17:15.845Z,22.69
2019-04-20T12:22:21.403Z,21.65
2019-04-20T12:27:26.972Z,22.00
2019-04-20T12:32:35.239Z,21.37
2019-04-20T12:37:38.938Z,20.33
2019-04-20T12:42:44.248Z,22.16
2019-04-20T12:47:51.483Z,21.76
2019-04-20T12:52:56.747Z,23.99
2019-04-20T12:58:02.726Z,23.08
2019-04-20T13:03:07.553Z,23.82
2019-04-20T13:08:15.905Z,22.68
2019-04-20T13:13:22.732Z,20.61
2019-04-20T13:18:31.389Z,21.32
2019-04-20T13:23:37.051Z,21.36
2019-04-20T13:28:42.966Z,20.75
2019-04-20T13:33:47.885Z,20.51
2019-04-20T13:38:52.531Z,19.24
2019-04-20T13:43:59.318Z,19.50
2019-04-20T13:49:04.859Z,19.70
2019-04-20T13:54:16.200Z,21.11
2019-04-20T13:59:28.158Z,21.67
2019-04-20T14:04:34.809Z,20.33
2019-04-20T14:09:41.452Z,21.48
2019-04-20T14:14:46.913Z,20.82
2019-04-20T14:19:52.902Z,19.99
2019-04-20T14:24:57.573Z,19.46
2019-04-20T14:30:03.383Z,20.62
2019-04-20T14:35:09.519Z,20.98
2019-04-20T14:40:14.576Z,19.49
2019-04-20T14:45:20.718Z,20.84
2019-04-20T14:50:26.019Z,20.24
2019-04-20T14:55:31.351Z,19.72
2019-04-20T15:00:56.533Z,19.88
2019-04-20T15:06:03.275Z,19.38
2019-04-20T15:11:09.122Z,20.15
2019-04-20T15:16:15.057Z,20.09
2019-04-20T15:21:25.275Z,20.79
2019-04-20T15:26:30.730Z,22.85
2019-04-20T15:31:36.447Z,22.61
2019-04-20T15:36:42.296Z,23.70
2019-04-20T15:41:47.344Z,23.67
2019-04-20T15:46:53.078Z,22.46
2019-04-20T15:51:57.806Z,21.62
2019-04-20T15:57:12.386Z,21.99
2019-04-20T16:02:13.584Z,22.99
2019-04-20T16:07:19.319Z,21.85
2019-04-20T16:12:24.918Z,24.40
2019-04-20T16:17:33.788Z,23.35
2019-04-20T16:22:36.569Z,25.99
2019-04-20T16:27:41.610Z,25.63
2019-04-20T16:32:46.309Z,25.92
2019-04-20T16:37:50.830Z,24.73
2019-04-20T16:42:56.383Z,24.69
2019-04-20T16:48:02.151Z,28.91
2019-04-20T16:53:08.767Z,29.58
2019-04-20T16:58:13.605Z,30.50
2019-04-20T17:03:19.551Z,31.92
2019-04-20T17:08:24.989Z,33.26
2019-04-20T17:13:38.003Z,32.64
2019-04-20T17:18:37.243Z,33.71
2019-04-20T17:23:43.891Z,33.85
2019-04-20T17:29:01.965Z,34.78
2019-04-20T17:34:25.734Z,35.01
2019-04-20T17:39:19.625Z,35.83
2019-04-20T17:44:34.512Z,36.04
2019-04-20T17:49:41.193Z,36.63
2019-04-20T17:54:39.793Z,36.53
2019-04-20T17:59:55.910Z,37.24
2019-04-20T18:05:22.062Z,37.44
2019-04-20T18:10:22.502Z,38.18
2019-04-20T18:15:28.056Z,38.67
2019-04-20T18:20:20.791Z,39.63
2019-04-20T18:25:53.280Z,39.81
2019-04-20T18:30:43.632Z,40.12
2019-04-20T18:35:44.332Z,41.41
2019-04-20T18:40:55.963Z,44.69
2019-04-20T18:46:15.090Z,41.84
2019-04-20T18:50:59.781Z,41.67
2019-04-20T18:56:06.126Z,41.41
2019-04-20T19:01:10.897Z,41.92
2019-04-20T19:06:16.077Z,42.28
2019-04-20T19:11:23.486Z,43.07
2019-04-20T19:16:46.660Z,43.43
2019-04-20T19:21:38.318Z,43.25
2019-04-20T19:26:44.981Z,42.30
2019-04-20T19:32:07.387Z,42.77
2019-04-20T19:37:09.301Z,43.71
2019-04-20T19:42:16.107Z,44.92
2019-04-20T19:47:28.432Z,45.52
2019-04-20T19:53:02.159Z,45.96
2019-04-20T19:57:37.357Z,46.91
2019-04-20T20:02:27.868Z,47.26
2019-04-20T20:07:40.189Z,48.58
2019-04-20T20:12:47.059Z,50.21
2019-04-20T20:18:04.753Z,49.09
2019-04-20T20:22:56.793Z,49.52
2019-04-20T20:28:14.538Z,50.84
2019-04-20T20:33:22.154Z,52.00
2019-04-20T20:38:22.419Z,52.61
2019-04-20T20:43:34.298Z,53.75
2019-04-20T20:48:38.784Z,53.75
2019-04-20T20:53:47.071Z,55.30
2019-04-20T20:58:48.565Z,56.97
2019-04-20T21:03:49.112Z,56.18
2019-04-20T21:08:56.075Z,58.26
2019-04-20T21:13:59.295Z,58.09
2019-04-20T21:19:21.475Z,59.02
2019-04-20T21:24:19.224Z,59.42
2019-04-20T21:29:31.499Z,59.98
2019-04-20T21:34:31.065Z,61.10
2019-04-20T21:39:44.107Z,61.96
2019-04-20T21:44:45.354Z,62.87
2019-04-20T21:49:57.982Z,63.24
2019-04-20T21:54:56.214Z,62.67
2019-04-20T22:00:10.135Z,63.31
2019-04-20T22:05:09.515Z,63.15
2019-04-20T22:10:18.980Z,63.01
2019-04-20T22:15:27.118Z,62.40
2019-04-20T22:20:37.007Z,61.00
2019-04-20T22:25:54.529Z,59.85
2019-04-20T22:30:42.091Z,59.18
2019-04-20T22:35:51.579Z,59.36
2019-04-20T22:40:56.424Z,59.87
2019-04-20T22:45:59.215Z,59.76
2019-04-20T22:51:19.589Z,59.66
2019-04-20T22:56:24.389Z,58.75
2019-04-20T23:01:27.704Z,59.31
2019-04-20T23:06:25.866Z,59.66
2019-04-20T23:11:31.860Z,59.85
2019-04-20T23:16:43.279Z,59.67
2019-04-20T23:21:48.608Z,59.84
2019-04-20T23:26:49.381Z,59.60
2019-04-20T23:31:59.351Z,60.13
2019-04-20T23:37:00.984Z,60.23
2019-04-20T23:42:09.562Z,60.22
2019-04-20T23:47:25.499Z,60.57
2019-04-20T23:52:48.805Z,61.58
2019-04-20T23:57:37.749Z,62.29
